Terminal Aerodrome Forecast
Issued by NWS Grand Forks, ND

Home | Current Version | Previous Version | Graphics & Text | Print | Product List | Glossary On
Versions: 1 2 3 4 5 6 7 8 9 10 11 12 13 14
035
FTUS43 KFGF 250520
TAFFAR
TAF
KFAR 250520Z 2506/2606 17014G20KT P6SM OVC008
     FM250700 17012KT P6SM SCT200
     FM251300 22013KT P6SM BKN090
     FM251600 28018G24KT P6SM OVC025
     FM251800 31022G31KT P6SM OVC015
     FM260000 31012KT P6SM BKN045=

USA.gov is the U.S. government's official web portal to all federal, state and local government web resources and services.